createdAt,value
2018-07-12T00:56:51.226Z,11.80
2018-07-12T00:59:18.987Z,11.80
2018-07-12T01:01:46.676Z,12.27
2018-07-12T01:04:14.211Z,11.93
2018-07-12T01:06:41.548Z,12.30
2018-07-12T01:09:09.013Z,11.50
2018-07-12T01:11:36.485Z,11.67
2018-07-12T01:14:04.240Z,12.00
2018-07-12T01:16:31.700Z,12.13
2018-07-12T01:18:59.390Z,12.20
2018-07-12T01:21:26.810Z,11.37
2018-07-12T01:23:55.324Z,12.47
2018-07-12T01:26:22.743Z,12.27
2018-07-12T01:28:50.515Z,11.87
2018-07-12T01:31:18.910Z,11.47
2018-07-12T01:33:46.217Z,12.10
2018-07-12T01:36:14.924Z,12.13
2018-07-12T01:38:42.133Z,12.70
2018-07-12T01:41:09.605Z,11.90
2018-07-12T01:43:36.945Z,12.50
2018-07-12T01:46:04.672Z,11.10
2018-07-12T01:48:32.848Z,12.17
2018-07-12T01:51:00.194Z,12.03
2018-07-12T01:53:27.492Z,11.77
2018-07-12T01:55:55.229Z,11.43
2018-07-12T01:58:22.671Z,11.83
2018-07-12T02:00:50.451Z,11.73
2018-07-12T02:03:19.164Z,11.30
2018-07-12T02:05:46.479Z,11.90
2018-07-12T02:08:14.047Z,11.57
2018-07-12T02:10:41.914Z,12.40
2018-07-12T02:13:09.252Z,11.83
2018-07-12T02:15:36.824Z,11.90
2018-07-12T02:18:05.079Z,11.63
2018-07-12T02:20:32.846Z,12.60
2018-07-12T02:23:00.173Z,11.53
2018-07-12T02:25:27.464Z,13.00
2018-07-12T02:27:54.762Z,12.80
2018-07-12T02:30:22.071Z,12.23
2018-07-12T02:32:49.831Z,12.80
2018-07-12T02:35:17.221Z,12.67
2018-07-12T02:37:45.203Z,12.50
2018-07-12T02:40:12.542Z,12.27
2018-07-12T02:42:39.855Z,12.47
2018-07-12T02:45:07.330Z,12.83
2018-07-12T02:47:35.196Z,12.17
2018-07-12T02:50:03.044Z,12.97
2018-07-12T02:52:30.349Z,12.80
2018-07-12T02:54:57.768Z,12.60
2018-07-12T02:57:25.380Z,13.03
2018-07-12T02:59:53.328Z,12.77
2018-07-12T03:02:20.845Z,13.27
2018-07-12T03:04:48.298Z,13.20
2018-07-12T03:07:15.635Z,12.90
2018-07-12T03:09:43.007Z,13.47
2018-07-12T03:12:10.709Z,12.30
2018-07-12T03:14:38.786Z,12.23
2018-07-12T03:17:06.203Z,13.03
2018-07-12T03:19:34.155Z,12.70
2018-07-12T03:22:01.471Z,12.93
2018-07-12T03:24:28.746Z,13.60
2018-07-12T03:26:56.481Z,12.63
2018-07-12T03:29:23.798Z,13.33
2018-07-12T03:31:51.329Z,12.73
2018-07-12T03:34:19.544Z,13.23
2018-07-12T03:36:47.203Z,12.80
2018-07-12T03:39:14.532Z,13.67
2018-07-12T03:41:41.861Z,12.07
2018-07-12T03:44:09.183Z,12.80
2018-07-12T03:46:36.764Z,12.77
2018-07-12T03:49:04.109Z,12.83
2018-07-12T03:51:31.497Z,13.37
2018-07-12T03:53:58.800Z,13.10
2018-07-12T03:56:26.730Z,12.23
2018-07-12T03:58:54.664Z,13.53
2018-07-12T04:01:22.086Z,12.37
2018-07-12T04:03:49.610Z,13.00
2018-07-12T04:06:17.171Z,12.67
2018-07-12T04:08:45.278Z,12.63
2018-07-12T04:11:12.798Z,11.57
2018-07-12T04:13:40.123Z,11.37
2018-07-12T04:16:07.622Z,12.40
2018-07-12T04:18:35.195Z,12.60
2018-07-12T04:21:02.530Z,12.53
2018-07-12T04:23:30.218Z,12.23
2018-07-12T04:25:57.860Z,12.60
2018-07-12T04:28:25.414Z,12.27
2018-07-12T04:30:53.714Z,12.70
2018-07-12T04:33:21.065Z,12.87
2018-07-12T04:35:48.377Z,13.03
2018-07-12T04:38:15.749Z,11.77
2018-07-12T04:40:43.076Z,12.33
2018-07-12T04:43:10.416Z,11.57
2018-07-12T04:45:37.714Z,11.80
2018-07-12T04:48:05.053Z,11.80
2018-07-12T04:50:32.367Z,11.73
2018-07-12T04:53:00.107Z,11.67
2018-07-12T04:55:27.962Z,11.10
2018-07-12T04:57:55.458Z,12.00
2018-07-12T05:00:22.786Z,12.17
2018-07-12T05:02:50.623Z,12.17
2018-07-12T05:05:18.102Z,12.03
2018-07-12T05:07:45.711Z,11.80
2018-07-12T05:10:14.252Z,11.83
2018-07-12T05:12:41.587Z,11.20
2018-07-12T05:15:09.384Z,10.90
2018-07-12T05:17:36.696Z,11.33
2018-07-12T05:20:03.988Z,10.77
2018-07-12T05:22:31.495Z,10.90
2018-07-12T05:24:58.794Z,11.07
2018-07-12T05:27:26.197Z,11.40
2018-07-12T05:29:53.984Z,10.67
2018-07-12T05:32:21.484Z,10.90
2018-07-12T05:34:51.586Z,11.23
2018-07-12T05:37:20.675Z,11.33
2018-07-12T05:39:51.185Z,10.90
2018-07-12T05:42:19.748Z,10.97
2018-07-12T05:44:48.346Z,10.50
2018-07-12T05:47:16.814Z,10.50
2018-07-12T05:49:45.278Z,10.73
2018-07-12T05:52:13.738Z,10.90
2018-07-12T05:54:42.147Z,11.40
2018-07-12T05:57:11.206Z,11.57
2018-07-12T05:59:39.778Z,11.00
2018-07-12T06:02:20.708Z,10.57
2018-07-12T06:04:50.000Z,9.97
2018-07-12T06:07:24.024Z,9.50
2018-07-12T06:09:52.732Z,10.00
2018-07-12T06:12:21.506Z,10.00
2018-07-12T06:14:50.700Z,9.40
2018-07-12T06:17:19.341Z,9.23
2018-07-12T06:19:48.219Z,8.90
2018-07-12T06:22:17.108Z,8.60
2018-07-12T06:24:46.433Z,8.63
2018-07-12T06:27:14.851Z,9.30
2018-07-12T06:29:43.271Z,8.63
2018-07-12T06:32:12.948Z,9.00
2018-07-12T06:34:41.753Z,9.40
2018-07-12T06:37:10.561Z,9.80
2018-07-12T06:39:39.517Z,10.00
2018-07-12T06:42:07.931Z,9.97
2018-07-12T06:44:36.444Z,9.27
2018-07-12T06:47:04.937Z,9.83
2018-07-12T06:49:33.620Z,8.90
2018-07-12T06:52:03.007Z,8.23
2018-07-12T06:54:31.413Z,8.50
2018-07-12T06:57:00.152Z,8.63
2018-07-12T06:59:29.086Z,8.23
2018-07-12T07:01:57.609Z,8.27
2018-07-12T07:04:26.281Z,8.87
2018-07-12T07:06:55.143Z,9.10
2018-07-12T07:09:24.582Z,8.20
2018-07-12T07:11:53.529Z,7.90
2018-07-12T07:14:22.778Z,8.40
2018-07-12T07:16:51.540Z,8.27
2018-07-12T07:19:21.086Z,8.63
2018-07-12T07:21:49.750Z,8.50
2018-07-12T07:24:18.424Z,8.80
2018-07-12T07:26:47.432Z,8.67
2018-07-12T07:29:16.021Z,8.57
2018-07-12T07:31:44.485Z,8.53
2018-07-12T07:34:13.556Z,8.57
2018-07-12T07:36:42.280Z,8.60
2018-07-12T07:39:11.083Z,8.43
2018-07-12T07:41:41.288Z,8.43
2018-07-12T07:44:10.480Z,8.13
2018-07-12T07:46:39.535Z,7.00
2018-07-12T07:49:08.137Z,7.00
2018-07-12T07:51:36.807Z,7.00
2018-07-12T07:54:05.730Z,6.70
2018-07-12T07:56:33.894Z,6.50
2018-07-12T07:59:02.335Z,6.47
2018-07-12T08:01:31.605Z,6.60
2018-07-12T08:04:00.251Z,6.10
2018-07-12T08:06:30.520Z,6.00
2018-07-12T08:08:58.988Z,5.40
2018-07-12T08:11:27.843Z,5.77
2018-07-12T08:13:57.605Z,5.03
2018-07-12T08:16:26.809Z,4.73
2018-07-12T08:18:55.228Z,5.50
2018-07-12T08:21:24.352Z,4.87
2018-07-12T08:23:52.929Z,5.10
2018-07-12T08:26:21.339Z,5.43
2018-07-12T08:28:50.239Z,4.90
2018-07-12T08:31:20.145Z,5.73
2018-07-12T08:33:49.086Z,6.37
2018-07-12T08:36:17.885Z,5.20
2018-07-12T08:38:46.789Z,5.57
2018-07-12T08:41:15.420Z,5.60
2018-07-12T08:43:43.833Z,5.87
2018-07-12T08:46:12.866Z,5.20
2018-07-12T08:48:41.382Z,5.57
2018-07-12T08:51:10.090Z,5.10
2018-07-12T08:53:38.819Z,5.43
2018-07-12T08:56:07.457Z,5.37
2018-07-12T08:58:36.222Z,5.03
2018-07-12T09:01:04.808Z,5.07
2018-07-12T09:03:33.792Z,5.10
2018-07-12T09:06:02.616Z,4.80
2018-07-12T09:08:31.463Z,5.00
2018-07-12T09:10:59.994Z,4.37
2018-07-12T09:13:28.551Z,4.80
2018-07-12T09:15:57.277Z,4.23
2018-07-12T09:18:26.442Z,4.17
2018-07-12T09:20:54.988Z,4.23
2018-07-12T09:23:23.625Z,4.00
2018-07-12T09:25:52.350Z,3.50
2018-07-12T09:28:21.908Z,3.20
2018-07-12T09:30:50.887Z,3.97
2018-07-12T09:33:19.673Z,3.93
2018-07-12T09:35:48.529Z,4.17
2018-07-12T09:38:35.613Z,3.53
2018-07-12T09:41:04.913Z,3.57
2018-07-12T09:43:33.319Z,7.33
2018-07-12T09:46:02.860Z,4.10
2018-07-12T09:48:31.984Z,4.27
2018-07-12T09:51:00.506Z,4.20
2018-07-12T09:53:29.252Z,4.83
2018-07-12T09:55:59.032Z,4.80
2018-07-12T09:58:28.855Z,5.00
2018-07-12T10:03:07.408Z,4.97
2018-07-12T10:05:41.400Z,5.00
2018-07-12T10:08:15.540Z,4.67
2018-07-12T10:10:52.469Z,4.90
2018-07-12T10:13:24.674Z,4.57
2018-07-12T10:15:59.307Z,5.63
2018-07-12T10:18:29.465Z,5.40
2018-07-12T10:20:58.229Z,5.80
2018-07-12T10:23:27.136Z,5.83
2018-07-12T10:25:56.936Z,5.90
2018-07-12T10:28:25.632Z,6.07
2018-07-12T10:30:54.260Z,6.67
2018-07-12T10:33:22.976Z,5.30
2018-07-12T10:35:52.620Z,5.90
2018-07-12T10:38:21.036Z,5.90
2018-07-12T10:40:49.583Z,6.40
2018-07-12T10:43:18.516Z,5.90
2018-07-12T10:45:47.201Z,5.93
2018-07-12T10:48:16.292Z,6.50
2018-07-12T10:50:45.644Z,5.83
2018-07-12T10:53:14.450Z,5.63
2018-07-12T10:55:43.882Z,6.40
2018-07-12T10:58:13.096Z,5.70
2018-07-12T11:00:41.777Z,6.07
2018-07-12T11:03:10.913Z,6.57
2018-07-12T11:05:39.888Z,5.57
2018-07-12T11:08:08.773Z,5.43
2018-07-12T11:10:37.290Z,5.87
2018-07-12T11:19:59.378Z,4.83
2018-07-12T11:22:28.394Z,4.47
2018-07-12T11:24:57.177Z,4.57
2018-07-12T11:27:26.968Z,4.20
2018-07-12T11:29:56.945Z,4.10
2018-07-12T11:32:25.649Z,4.70
2018-07-12T11:34:54.291Z,4.80
2018-07-12T11:37:25.942Z,4.30
2018-07-12T11:39:54.551Z,4.63
2018-07-12T11:42:23.448Z,4.20
2018-07-12T11:44:51.987Z,4.70
2018-07-12T11:47:21.104Z,4.87
2018-07-12T11:49:49.823Z,4.50
2018-07-12T11:52:18.861Z,4.37
2018-07-12T11:54:48.476Z,4.00
2018-07-12T11:57:17.247Z,4.20
2018-07-12T11:59:45.660Z,4.93
2018-07-12T12:02:14.060Z,4.50
2018-07-12T12:04:42.595Z,4.17
2018-07-12T12:07:11.335Z,4.13
2018-07-12T12:09:39.965Z,3.80
2018-07-12T12:12:09.054Z,3.07
2018-07-12T12:14:37.736Z,3.50
2018-07-12T12:17:06.264Z,3.70
2018-07-12T12:19:34.778Z,3.87
2018-07-12T12:22:03.213Z,3.30
2018-07-12T12:24:32.146Z,3.60
2018-07-12T12:27:00.794Z,3.10
2018-07-12T12:29:29.200Z,3.40
2018-07-12T12:31:57.607Z,3.30
2018-07-12T12:34:26.202Z,3.40
2018-07-12T12:36:55.677Z,4.17
2018-07-12T12:39:24.258Z,3.80
2018-07-12T12:41:52.703Z,3.60
2018-07-12T12:44:21.191Z,3.60
2018-07-12T12:46:49.676Z,3.60
2018-07-12T12:49:19.163Z,3.50
2018-07-12T12:51:47.797Z,3.17
2018-07-12T12:54:16.646Z,3.13
2018-07-12T12:56:45.439Z,3.40
2018-07-12T12:59:14.026Z,2.90
2018-07-12T13:01:42.707Z,3.17
2018-07-12T13:04:11.480Z,3.30
2018-07-12T13:06:40.322Z,3.90
2018-07-12T13:09:09.111Z,2.93
2018-07-12T13:11:38.092Z,3.13
2018-07-12T13:14:06.529Z,2.93
2018-07-12T13:16:36.851Z,2.60
2018-07-12T13:19:05.631Z,2.93
2018-07-12T13:21:34.304Z,3.40
2018-07-12T13:24:02.790Z,3.00
2018-07-12T13:26:32.140Z,2.90
2018-07-12T13:29:00.569Z,2.73
2018-07-12T13:31:29.449Z,2.37
2018-07-12T13:33:58.627Z,2.47
2018-07-12T13:36:29.197Z,2.47
2018-07-12T13:38:58.019Z,2.40
2018-07-12T13:41:27.076Z,2.83
2018-07-12T13:44:07.054Z,3.07
2018-07-12T13:46:36.076Z,3.20
2018-07-12T13:49:05.501Z,2.57
2018-07-12T13:51:34.392Z,2.60
2018-07-12T13:54:03.281Z,2.60
2018-07-12T13:56:32.442Z,2.57
2018-07-12T13:59:01.256Z,2.80
2018-07-12T14:01:29.698Z,2.50
2018-07-12T14:03:58.684Z,2.90
2018-07-12T14:06:27.161Z,2.60
2018-07-12T14:08:55.943Z,3.20
2018-07-12T14:11:25.382Z,2.93
2018-07-12T14:13:53.886Z,2.80
2018-07-12T14:16:22.727Z,2.40
2018-07-12T14:18:53.081Z,2.23
2018-07-12T14:21:21.813Z,2.80
2018-07-12T14:23:50.223Z,2.70
2018-07-12T14:26:19.548Z,2.90
2018-07-12T14:28:48.584Z,2.53
2018-07-12T14:31:17.635Z,3.10
2018-07-12T14:33:46.892Z,2.80
2018-07-12T14:36:16.466Z,3.10
2018-07-12T14:38:45.150Z,2.60
2018-07-12T14:41:14.320Z,2.47
2018-07-12T14:43:42.742Z,2.67
2018-07-12T14:46:11.616Z,2.73
2018-07-12T14:48:40.331Z,2.40
2018-07-12T14:51:09.782Z,2.80
2018-07-12T14:53:38.450Z,2.43
2018-07-12T14:56:07.277Z,2.40
2018-07-12T14:58:35.934Z,2.37
2018-07-12T15:01:05.076Z,2.20
2018-07-12T15:03:33.527Z,2.57
2018-07-12T15:06:02.246Z,2.27
2018-07-12T15:08:31.801Z,2.00
2018-07-12T15:11:00.558Z,2.10
2018-07-12T15:13:28.993Z,2.10
2018-07-12T15:15:57.466Z,1.87
2018-07-12T15:18:26.148Z,2.00
2018-07-12T15:20:56.075Z,1.90
2018-07-12T15:23:24.891Z,1.83
2018-07-12T15:25:53.631Z,1.80
2018-07-12T15:28:22.933Z,2.00
2018-07-12T15:30:51.616Z,2.03
2018-07-12T15:33:20.181Z,2.00
2018-07-12T15:35:49.069Z,1.90
2018-07-12T15:38:18.491Z,1.80
2018-07-12T15:40:47.028Z,1.90
2018-07-12T15:43:15.921Z,1.70
2018-07-12T15:45:45.265Z,1.67
2018-07-12T15:48:13.821Z,2.00
2018-07-12T15:50:42.618Z,1.80
2018-07-12T15:53:11.280Z,1.70
2018-07-12T15:55:39.890Z,1.90
2018-07-12T15:58:09.037Z,1.73
2018-07-12T16:00:37.651Z,2.00
2018-07-12T16:03:06.583Z,1.90
2018-07-12T16:05:35.433Z,1.97
2018-07-12T16:08:04.987Z,2.20
2018-07-12T16:10:33.651Z,2.00
2018-07-12T16:13:02.118Z,8.17
2018-07-12T16:15:30.973Z,2.67
2018-07-12T16:18:00.676Z,2.30
2018-07-12T16:20:30.667Z,1.70
2018-07-12T16:22:59.516Z,5.33
2018-07-12T16:25:28.145Z,2.00
2018-07-12T16:27:57.022Z,1.80
2018-07-12T16:30:25.438Z,1.90
2018-07-12T16:32:54.122Z,2.23
2018-07-12T16:35:23.880Z,2.10
2018-07-12T16:37:53.650Z,1.83
2018-07-12T16:40:22.277Z,2.07
2018-07-12T16:42:51.959Z,1.70
2018-07-12T16:45:20.938Z,1.80
2018-07-12T16:47:57.436Z,1.70
2018-07-12T16:50:27.012Z,2.10
2018-07-12T16:52:56.601Z,2.00
2018-07-12T16:55:25.026Z,1.90
2018-07-12T16:57:53.451Z,1.60
2018-07-12T17:00:22.734Z,1.87
2018-07-12T17:02:51.383Z,1.80
2018-07-12T17:05:20.064Z,2.10
2018-07-12T17:07:48.687Z,9.13
2018-07-12T17:10:17.799Z,2.10
2018-07-12T17:12:47.295Z,1.73
2018-07-12T17:15:16.059Z,1.63
2018-07-12T17:17:44.164Z,1.80
2018-07-12T17:20:12.834Z,1.77
2018-07-12T17:22:42.323Z,1.83
2018-07-12T17:25:11.160Z,1.60
2018-07-12T17:27:39.881Z,1.90
2018-07-12T17:30:09.173Z,2.07
2018-07-12T17:32:37.584Z,1.67
2018-07-12T17:35:06.221Z,1.87
2018-07-12T17:37:35.759Z,1.70
2018-07-12T17:40:04.582Z,1.73
2018-07-12T17:42:33.322Z,2.10
2018-07-12T17:45:03.990Z,2.00
2018-07-12T17:59:21.343Z,2.03
2018-07-12T18:01:49.952Z,1.90
2018-07-12T18:04:19.676Z,1.97
2018-07-12T18:06:48.429Z,1.93
2018-07-12T18:09:17.933Z,1.80
2018-07-12T18:11:46.581Z,1.70
2018-07-12T18:14:15.474Z,1.70
2018-07-12T18:16:44.961Z,1.80
2018-07-12T18:19:13.665Z,1.90
2018-07-12T18:21:42.141Z,1.80
2018-07-12T18:24:10.690Z,2.10
2018-07-12T18:26:39.134Z,1.97
2018-07-12T18:29:08.563Z,1.97
2018-07-12T18:31:37.025Z,2.03
2018-07-12T18:34:05.616Z,1.90
2018-07-12T18:36:35.169Z,1.80
2018-07-12T18:39:04.803Z,2.10
2018-07-12T18:41:33.327Z,2.30
2018-07-12T18:44:01.816Z,2.40
2018-07-12T18:46:31.435Z,2.03
2018-07-12T18:49:00.219Z,2.07
2018-07-12T18:51:29.736Z,2.00
2018-07-12T18:53:58.511Z,1.90
2018-07-12T18:56:27.711Z,2.07
2018-07-12T18:58:56.214Z,2.20
2018-07-12T19:01:25.251Z,2.33
2018-07-12T19:03:53.969Z,2.13
2018-07-12T19:06:22.783Z,2.17
2018-07-12T19:08:51.513Z,2.20
2018-07-12T19:11:19.964Z,2.30
2018-07-12T19:13:49.120Z,2.30
2018-07-12T19:16:18.082Z,2.20
2018-07-12T19:18:46.941Z,2.30
2018-07-12T19:21:16.079Z,2.27
2018-07-12T19:23:44.518Z,2.30
2018-07-12T19:26:13.398Z,2.40
2018-07-12T19:28:42.365Z,2.10
2018-07-12T19:31:11.680Z,2.30
2018-07-12T19:33:40.739Z,2.23
2018-07-12T19:36:09.205Z,3.17
2018-07-12T19:38:37.789Z,3.00
2018-07-12T19:41:07.750Z,3.10
2018-07-12T19:43:36.799Z,3.30
2018-07-12T19:46:05.521Z,2.70
2018-07-12T19:48:34.605Z,2.90
2018-07-12T19:51:03.279Z,3.03
2018-07-12T19:53:31.821Z,2.87
2018-07-12T19:56:01.162Z,2.90
2018-07-12T19:58:30.098Z,2.63
2018-07-12T20:00:59.079Z,2.53
2018-07-12T20:03:27.654Z,2.80
2018-07-12T20:05:57.823Z,2.87
2018-07-12T20:08:27.571Z,2.73
2018-07-12T20:10:56.720Z,2.87
2018-07-12T20:13:26.297Z,2.80
2018-07-12T20:15:54.964Z,2.90
2018-07-12T20:18:24.342Z,2.50
2018-07-12T20:20:53.718Z,2.83
2018-07-12T20:23:22.362Z,2.97
2018-07-12T20:25:51.296Z,3.50
2018-07-12T20:28:19.811Z,3.90
2018-07-12T20:30:49.963Z,3.43
2018-07-12T20:33:18.380Z,3.07
2018-07-12T20:35:46.964Z,4.40
2018-07-12T20:38:16.189Z,7.00
2018-07-12T20:40:45.737Z,5.80
2018-07-12T20:43:18.474Z,5.50
2018-07-12T20:45:47.985Z,5.47
2018-07-12T20:48:16.679Z,5.93
2018-07-12T20:50:45.728Z,7.50
2018-07-12T20:53:14.835Z,6.67
2018-07-12T20:55:43.496Z,6.87
2018-07-12T20:58:12.793Z,5.23
2018-07-12T21:00:41.238Z,4.77
2018-07-12T21:03:09.638Z,4.03
2018-07-12T21:05:38.634Z,3.80
2018-07-12T21:08:07.066Z,3.87
2018-07-12T21:10:35.156Z,3.73
2018-07-12T21:13:03.846Z,3.40
2018-07-12T21:15:32.646Z,3.40
2018-07-12T21:18:02.213Z,4.00
2018-07-12T21:20:31.294Z,3.70
2018-07-12T21:22:59.930Z,3.23
2018-07-12T21:25:29.116Z,3.80
2018-07-12T21:27:57.874Z,3.87
2018-07-12T21:30:26.262Z,3.50
2018-07-12T21:32:54.752Z,3.47
2018-07-12T21:35:23.472Z,3.40
2018-07-12T21:37:52.443Z,3.70
2018-07-12T21:40:20.880Z,3.90
2018-07-12T21:42:49.309Z,3.80
2018-07-12T21:45:17.729Z,3.83
2018-07-12T21:47:46.427Z,4.00
2018-07-12T21:50:14.890Z,3.93
2018-07-12T21:52:43.545Z,3.63
